Time;durP1;ratioP1;P1;durP2;ratioP2;P2;SDS_P1;SDS_P2;PMS_P1;PMS_P2;Temp;Humidity;BMP_temperature;BMP_pressure;BME280_temperature;BME280_humidity;BME280_pressure;Samples;Min_cycle;Max_cycle;Signal;HPM_P1;HPM_P2
2021/10/07 00:01:06;;;;;;;18.77;13.98;;;;;;;11.62;91.77;100480.68;1623215;86;21053;-57
2021/10/07 00:03:33;;;;;;;16.40;13.23;;;;;;;11.63;91.81;100487.63;1664223;85;21092;-57
2021/10/07 00:06:00;;;;;;;15.30;13.57;;;;;;;11.62;91.80;100481.98;1660470;85;21899;-57
2021/10/07 00:08:26;;;;;;;15.40;13.80;;;;;;;11.64;91.83;100484.09;1658126;85;21267;-58
2021/10/07 00:10:53;;;;;;;19.32;14.30;;;;;;;11.65;91.92;100492.36;1630003;86;21039;-58
2021/10/07 00:13:19;;;;;;;19.40;14.77;;;;;;;11.65;91.85;100494.98;1664758;85;21120;-57
2021/10/07 00:15:46;;;;;;;17.13;14.90;;;;;;;11.65;91.84;100494.98;1670198;85;20926;-58
2021/10/07 00:18:13;;;;;;;16.47;14.37;;;;;;;11.66;91.91;100501.90;1653615;85;21882;-57
2021/10/07 00:20:39;;;;;;;16.90;15.10;;;;;;;11.67;91.94;100497.05;1666468;85;21656;-57
2021/10/07 00:23:06;;;;;;;19.73;15.58;;;;;;;11.67;91.90;100497.05;1664265;85;21026;-57
2021/10/07 00:25:32;;;;;;;23.67;17.10;;;;;;;11.67;91.88;100504.05;1633696;87;21015;-57
2021/10/07 00:28:07;;;;;;;20.33;15.83;;;;;;;11.66;91.92;100497.98;1665300;85;20943;-57
2021/10/07 00:30:27;;;;;;;19.45;16.32;;;;;;;11.67;91.97;100506.20;1665670;85;21109;-57
2021/10/07 00:35:43;;;;;;;18.73;15.63;;;;;;;11.66;91.99;100503.20;1649797;85;21036;-57
2021/10/07 00:40:53;;;;;;;19.90;16.40;;;;;;;11.66;92.03;100511.05;1656459;85;21020;-57
2021/10/07 00:43:20;;;;;;;22.15;17.12;;;;;;;11.66;92.09;100513.67;1672736;85;21186;-57
2021/10/07 00:45:56;;;;;;;24.50;19.35;;;;;;;11.65;92.08;100511.98;1663116;85;21026;-57
2021/10/07 00:48:23;;;;;;;26.37;18.52;;;;;;;11.64;92.10;100515.48;1639224;86;21169;-57
2021/10/07 00:50:51;;;;;;;24.63;18.05;;;;;;;11.65;92.14;100515.91;1664958;85;21096;-57
2021/10/07 00:53:18;;;;;;;;;;;;;;;11.66;92.14;100516.28;1638731;86;21041;-57
2021/10/07 00:55:47;;;;;;;24.07;18.25;;;;;;;11.67;92.19;100519.28;1649833;86;21173;-57
2021/10/07 00:58:16;;;;;;;24.30;19.15;;;;;;;11.68;92.26;100521.44;1643583;86;21549;-57
2021/10/07 01:00:44;;;;;;;23.55;17.92;;;;;;;11.69;92.24;100519.24;1649371;86;21011;-57
2021/10/07 01:03:12;;;;;;;25.45;18.40;;;;;;;11.69;92.19;100524.02;1650318;86;21513;-58
2021/10/07 01:05:39;;;;;;;26.57;19.02;;;;;;;11.69;92.16;100518.78;1657508;85;21542;-58
2021/10/07 01:08:07;;;;;;;23.32;17.87;;;;;;;11.68;92.19;100522.31;1669976;84;21903;-57
2021/10/07 01:10:34;;;;;;;30.85;20.52;;;;;;;11.68;92.24;100514.47;1669557;85;21520;-58
2021/10/07 01:13:00;;;;;;;27.07;20.23;;;;;;;11.67;92.20;100519.75;1665769;85;20990;-58
2021/10/07 01:15:27;;;;;;;25.33;19.03;;;;;;;11.66;92.26;100516.28;1668091;85;21021;-57
2021/10/07 01:17:54;;;;;;;29.57;20.77;;;;;;;11.67;92.28;100516.67;1655597;85;21043;-57
2021/10/07 01:20:20;;;;;;;27.37;19.63;;;;;;;11.65;92.29;100518.52;1663671;85;21949;-57
2021/10/07 01:22:47;;;;;;;26.73;20.57;;;;;;;11.64;92.32;100520.72;1654641;85;21595;-57
2021/10/07 01:25:14;;;;;;;24.35;19.35;;;;;;;11.65;92.39;100523.28;1655644;85;20995;-57
2021/10/07 01:27:41;;;;;;;31.35;19.57;;;;;;;11.66;92.33;100518.91;1652685;85;21033;-57
2021/10/07 01:30:12;;;;;;;24.30;18.75;;;;;;;11.66;92.33;100526.75;1659541;85;21022;-57
2021/10/07 01:32:41;;;;;;;27.10;19.92;;;;;;;11.66;92.41;100526.75;1654027;85;21136;-57
2021/10/07 01:35:10;;;;;;;27.82;20.37;;;;;;;11.66;92.39;100526.75;1656755;85;21078;-57
2021/10/07 01:37:37;;;;;;;28.15;20.50;;;;;;;11.67;92.46;100533.67;1655362;85;21081;-57
2021/10/07 01:40:08;;;;;;;28.70;21.45;;;;;;;11.69;92.45;100535.78;1655261;85;21018;-57
2021/10/07 01:42:42;;;;;;;31.45;21.77;;;;;;;11.69;92.44;100533.17;1655212;85;21005;-57
2021/10/07 01:45:10;;;;;;;29.85;22.62;;;;;;;11.71;92.54;100530.05;1652381;85;21657;-57
2021/10/07 01:47:37;;;;;;;31.70;22.13;;;;;;;11.74;92.52;100524.69;1655255;85;20978;-57
2021/10/07 01:50:07;;;;;;;31.55;21.97;;;;;;;11.74;92.43;100531.69;1656937;85;21046;-58
2021/10/07 01:52:34;;;;;;;27.02;20.92;;;;;;;11.76;92.52;100533.34;1661993;85;21079;-57
2021/10/07 01:55:00;;;;;;;30.20;22.50;;;;;;;11.78;92.56;100530.19;1659905;85;21032;-57
2021/10/07 01:57:27;;;;;;;30.72;22.17;;;;;;;11.80;92.51;100532.30;1638501;86;21651;-58
2021/10/07 01:59:53;;;;;;;28.67;21.60;;;;;;;11.80;92.46;100537.52;1659898;85;21080;-57
2021/10/07 02:02:20;;;;;;;31.27;21.02;;;;;;;11.79;92.51;100538.45;1665669;85;21041;-57
2021/10/07 02:04:46;;;;;;;29.60;22.13;;;;;;;11.81;92.50;100544.45;1636869;87;21083;-57
2021/10/07 02:07:13;;;;;;;28.07;21.40;;;;;;;11.81;92.50;100549.69;1664196;85;20990;-58
2021/10/07 02:09:40;;;;;;;34.50;22.73;;;;;;;11.84;92.61;100551.33;1666027;85;21045;-58
2021/10/07 02:12:08;;;;;;;26.40;21.43;;;;;;;11.88;92.63;100548.19;1638888;86;21566;-57
2021/10/07 02:14:35;;;;;;;31.42;21.48;;;;;;;11.88;92.63;100548.19;1664267;85;21145;-57
2021/10/07 02:17:02;;;;;;;28.15;21.07;;;;;;;11.89;92.51;100548.58;1653747;85;21019;-57
2021/10/07 02:19:28;;;;;;;31.55;22.32;;;;;;;11.89;92.42;100556.42;1657655;85;22283;-57
2021/10/07 02:21:55;;;;;;;26.00;20.97;;;;;;;11.89;92.41;100556.42;1660125;85;21094;-58
2021/10/07 02:24:22;;;;;;;28.55;21.90;;;;;;;11.82;92.28;100557.95;1662231;85;21108;-57
2021/10/07 02:26:48;;;;;;;29.40;22.52;;;;;;;11.82;92.28;100557.95;1656296;85;21362;-57
2021/10/07 02:29:15;;;;;;;30.55;22.02;;;;;;;11.79;92.35;100559.37;1657281;85;20989;-57
2021/10/07 02:31:42;;;;;;;29.73;21.60;;;;;;;11.77;92.44;100555.96;1663065;85;20990;-57
2021/10/07 02:34:08;;;;;;;26.03;21.17;;;;;;;11.76;92.45;100559.50;1658925;85;21801;-57
2021/10/07 02:36:35;;;;;;;32.63;22.25;;;;;;;11.75;92.53;100570.86;1656776;85;21521;-57
2021/10/07 02:39:03;;;;;;;32.20;23.03;;;;;;;11.74;92.58;100566.55;1654608;85;20967;-57
2021/10/07 02:41:30;;;;;;;34.80;25.05;;;;;;;11.72;92.54;100570.98;1655250;85;21052;-58
2021/10/07 02:43:58;;;;;;;27.58;22.15;;;;;;;11.72;92.62;100574.91;1663112;85;20985;-57
2021/10/07 02:46:25;;;;;;;27.48;22.27;;;;;;;11.73;92.70;100570.05;1660687;85;21596;-58
2021/10/07 02:48:51;;;;;;;32.38;22.85;;;;;;;11.73;92.66;100583.14;1653828;85;21111;-57
2021/10/07 02:51:18;;;;;;;31.13;24.20;;;;;;;11.73;92.67;100579.21;1653697;85;20983;-57
2021/10/07 02:53:45;;;;;;;33.43;23.27;;;;;;;11.73;92.67;100572.67;1655609;85;21033;-58
2021/10/07 02:56:11;;;;;;;31.37;23.87;;;;;;;11.73;92.64;100573.98;1657927;85;21635;-57
2021/10/07 02:58:38;;;;;;;32.78;22.95;;;;;;;11.72;92.63;100585.37;1655364;85;21564;-58
2021/10/07 03:01:05;;;;;;;37.15;26.05;;;;;;;11.72;92.79;100585.37;1657106;85;20966;-58
2021/10/07 03:03:31;;;;;;;35.73;25.17;;;;;;;11.73;92.70;100590.98;1656032;85;21001;-57
2021/10/07 03:05:58;;;;;;;32.88;24.85;;;;;;;11.71;92.65;100587.60;1656074;85;21041;-58
2021/10/07 03:08:27;;;;;;;32.73;23.00;;;;;;;11.70;92.73;100581.95;1655908;85;21004;-57
2021/10/07 03:10:58;;;;;;;30.02;22.93;;;;;;;11.69;92.73;100590.72;1655034;85;21379;-58
2021/10/07 03:13:25;;;;;;;31.17;24.00;;;;;;;11.70;92.77;100598.95;1653760;85;21024;-57
2021/10/07 03:15:52;;;;;;;33.08;23.30;;;;;;;11.69;92.78;100595.11;1657040;85;21158;-57
2021/10/07 03:18:18;;;;;;;32.60;24.20;;;;;;;11.68;92.75;100592.95;1648626;85;21072;-58
2021/10/07 03:20:45;;;;;;;33.73;23.97;;;;;;;11.66;92.78;100594.77;1658333;85;20996;-57
2021/10/07 03:23:12;;;;;;;33.53;25.10;;;;;;;11.66;92.77;100602.61;1656030;85;21527;-58
2021/10/07 03:25:39;;;;;;;36.15;23.42;;;;;;;11.66;92.79;100605.23;1656847;85;21013;-58
2021/10/07 03:28:06;;;;;;;30.30;25.00;;;;;;;11.65;92.78;100608.77;1655895;85;21101;-57
2021/10/07 03:30:33;;;;;;;30.97;24.57;;;;;;;11.66;92.86;100613.08;1659214;85;21025;-57
2021/10/07 03:33:08;;;;;;;31.42;25.15;;;;;;;11.68;92.85;100613.87;1655198;85;20950;-57
2021/10/07 03:35:36;;;;;;;33.02;24.85;;;;;;;11.69;92.88;100612.95;1659170;85;21725;-57
2021/10/07 03:38:05;;;;;;;29.77;24.27;;;;;;;11.70;92.85;100615.95;1657683;85;21513;-57
2021/10/07 03:40:32;;;;;;;31.65;23.55;;;;;;;11.69;92.73;100618.19;1659346;85;21629;-58
2021/10/07 03:42:59;;;;;;;35.13;24.80;;;;;;;11.69;92.75;100623.87;1657654;85;22344;-57
2021/10/07 03:45:25;;;;;;;32.35;23.80;;;;;;;11.69;92.81;100622.58;1657193;85;21367;-57
2021/10/07 03:47:52;;;;;;;35.83;24.12;;;;;;;11.71;92.93;100628.15;1655540;85;21435;-57
2021/10/07 03:50:19;;;;;;;29.87;23.37;;;;;;;11.72;92.90;100633.77;1658510;85;21123;-58
2021/10/07 03:52:45;;;;;;;33.13;24.67;;;;;;;11.72;92.83;100632.92;1638749;86;20974;-58
2021/10/07 03:55:12;;;;;;;32.45;25.25;;;;;;;11.72;92.87;100635.08;1656226;85;20993;-58
2021/10/07 03:57:39;;;;;;;29.37;24.37;;;;;;;11.70;92.85;100640.81;1639141;86;21020;-57
2021/10/07 04:00:10;;;;;;;33.73;24.70;;;;;;;11.71;92.85;100644.31;1646393;85;22269;-58
2021/10/07 04:02:37;;;;;;;32.55;24.32;;;;;;;11.70;92.86;100646.50;1663082;85;20955;-57
2021/10/07 04:05:05;;;;;;;34.60;24.70;;;;;;;11.69;92.89;100646.97;1665469;85;21006;-57
2021/10/07 04:07:32;;;;;;;28.67;23.95;;;;;;;11.68;92.88;100646.58;1665981;85;21030;-58
2021/10/07 04:09:58;;;;;;;35.05;24.98;;;;;;;11.68;92.94;100647.89;1666192;85;21768;-58
2021/10/07 04:12:25;;;;;;;30.67;23.97;;;;;;;11.69;92.93;100644.34;1664306;85;21019;-57
2021/10/07 04:14:52;;;;;;;31.48;25.55;;;;;;;11.71;93.05;100646.46;1654471;85;21002;-57
2021/10/07 04:17:19;;;;;;;27.70;23.43;;;;;;;11.72;92.97;100643.39;1666042;85;20977;-58
2021/10/07 04:19:45;;;;;;;31.13;24.50;;;;;;;11.69;92.81;100644.34;1660687;85;21125;-56
2021/10/07 04:22:12;;;;;;;27.67;23.57;;;;;;;11.65;92.76;100642.77;1671318;84;21563;-56
2021/10/07 04:24:38;;;;;;;32.93;25.50;;;;;;;11.60;92.79;100642.93;1669176;85;21112;-56
2021/10/07 04:27:05;;;;;;;33.23;26.27;;;;;;;11.56;92.87;100641.32;1655361;85;21653;-56
2021/10/07 04:29:32;;;;;;;36.05;26.62;;;;;;;11.50;92.86;100656.39;1637053;87;21401;-56
2021/10/07 04:31:58;;;;;;;37.80;25.70;;;;;;;11.45;92.94;100654.39;1639150;86;21327;-56
2021/10/07 04:34:25;;;;;;;37.47;27.07;;;;;;;11.41;93.00;100658.43;1660177;85;21525;-56
2021/10/07 04:36:52;;;;;;;36.05;25.95;;;;;;;11.40;93.11;100668.50;1660770;85;21610;-56
2021/10/07 04:39:19;;;;;;;30.62;22.98;;;;;;;11.40;93.14;100675.03;1659990;85;21033;-56
2021/10/07 04:41:45;;;;;;;34.87;24.50;;;;;;;11.38;93.15;100674.23;1663143;85;21726;-56
2021/10/07 04:44:12;;;;;;;29.65;22.20;;;;;;;11.36;93.10;100676.03;1666718;85;20966;-56
2021/10/07 04:46:39;;;;;;;29.97;21.47;;;;;;;11.36;93.09;100683.03;1654509;85;21678;-56
2021/10/07 04:49:05;;;;;;;27.30;19.97;;;;;;;11.34;93.08;100690.95;1636448;87;21507;-56
2021/10/07 04:51:33;;;;;;;28.70;19.52;;;;;;;11.31;93.04;100692.34;1635411;86;21032;-56
2021/10/07 04:53:59;;;;;;;27.95;19.37;;;;;;;11.30;93.11;100693.71;1662407;84;21520;-56
2021/10/07 04:56:26;;;;;;;27.85;19.90;;;;;;;11.27;93.13;100707.74;1648674;85;20980;-56
2021/10/07 04:58:54;;;;;;;31.70;23.70;;;;;;;11.26;93.17;100712.58;1658012;85;21096;-56
2021/10/07 05:01:21;;;;;;;35.95;25.80;;;;;;;11.24;93.14;100719.61;1665639;85;21098;-56
2021/10/07 05:03:49;;;;;;;;;;;;;;;11.20;93.11;100723.22;1666436;85;21061;-56
2021/10/07 05:06:17;;;;;;;29.85;21.65;;;;;;;11.17;93.24;100724.63;1639416;87;20180;-56
2021/10/07 05:08:44;;;;;;;28.70;20.77;;;;;;;11.13;93.23;100728.27;1663493;84;21064;-56
2021/10/07 05:11:11;;;;;;;30.25;22.05;;;;;;;11.12;93.31;100723.97;1661932;85;21012;-56
2021/10/07 05:13:37;;;;;;;33.43;23.07;;;;;;;11.13;93.38;100726.97;1662669;84;21570;-56
2021/10/07 05:16:05;;;;;;;27.73;20.20;;;;;;;11.14;93.42;100729.97;1666685;84;20975;-56
2021/10/07 05:18:32;;;;;;;28.35;20.95;;;;;;;11.15;93.34;100736.92;1670944;84;21505;-56
2021/10/07 05:20:58;;;;;;;31.05;21.45;;;;;;;11.15;93.39;100737.77;1676426;84;21032;-56
2021/10/07 05:23:26;;;;;;;31.53;20.90;;;;;;;11.14;93.31;100733.89;1670089;85;20961;-56
2021/10/07 05:25:52;;;;;;;32.80;21.10;;;;;;;11.12;93.28;100733.11;1647628;86;21465;-56
2021/10/07 05:28:19;;;;;;;30.40;20.65;;;;;;;11.10;93.35;100732.30;1675954;83;21554;-56
2021/10/07 05:30:45;;;;;;;31.82;22.05;;;;;;;11.08;93.44;100735.41;1667825;85;20989;-56
2021/10/07 05:33:12;;;;;;;35.73;22.70;;;;;;;11.04;93.45;100736.43;1649445;86;20962;-56
2021/10/07 05:35:39;;;;;;;32.37;21.03;;;;;;;11.04;93.58;100745.12;1670675;85;21100;-56
2021/10/07 05:38:05;;;;;;;31.97;20.47;;;;;;;10.87;93.62;100722.15;1645202;86;21505;-56
2021/10/07 05:40:32;;;;;;;38.83;21.97;;;;;;;11.03;93.55;100751.69;1674697;85;20930;-56
2021/10/07 05:42:59;;;;;;;32.28;22.02;;;;;;;11.02;93.52;100755.22;1648334;86;21065;-56
2021/10/07 05:45:25;;;;;;;36.50;21.93;;;;;;;11.00;93.61;100758.32;1639279;86;21216;-56
2021/10/07 05:47:52;;;;;;;34.23;23.05;;;;;;;11.00;93.68;100755.70;1635826;86;21179;-56
2021/10/07 05:50:18;;;;;;;32.03;22.70;;;;;;;11.00;93.75;100760.94;1670751;84;22125;-56
2021/10/07 05:52:45;;;;;;;33.60;21.35;;;;;;;11.02;93.85;100756.52;1659988;85;20973;-56
2021/10/07 05:55:12;;;;;;;31.52;22.67;;;;;;;11.05;93.82;100761.64;1648840;85;21519;-56
2021/10/07 05:57:39;;;;;;;33.63;23.83;;;;;;;11.07;93.77;100765.08;1661856;85;21553;-56
2021/10/07 06:00:08;;;;;;;34.03;23.63;;;;;;;11.09;93.79;100769.34;1643502;86;21569;-56
2021/10/07 06:02:35;;;;;;;39.45;24.55;;;;;;;11.12;93.77;100777.55;1674087;85;21166;-56
2021/10/07 06:05:05;;;;;;;52.25;25.68;;;;;;;11.12;93.70;100777.55;1647316;86;20970;-56
2021/10/07 06:07:31;;;;;;;40.05;25.70;;;;;;;11.15;93.81;100782.67;1663783;85;20974;-56
2021/10/07 06:10:00;;;;;;;37.10;24.43;;;;;;;11.16;93.80;100775.22;1659845;85;22211;-56
2021/10/07 06:12:27;;;;;;;34.78;25.25;;;;;;;11.18;93.80;100782.11;1636471;85;21508;-56
2021/10/07 06:14:53;;;;;;;37.30;25.37;;;;;;;11.17;93.69;100782.14;1642063;86;21331;-56
2021/10/07 06:17:20;;;;;;;40.70;28.75;;;;;;;11.16;93.67;100791.75;1613298;88;21667;-56
2021/10/07 06:19:49;;;;;;;40.20;26.87;;;;;;;11.16;93.69;100802.66;1655068;85;20961;-56
2021/10/07 06:22:15;;;;;;;43.23;27.58;;;;;;;11.17;93.80;100804.36;1657915;85;20948;-56
2021/10/07 06:24:42;;;;;;;41.42;25.97;;;;;;;11.19;93.80;100806.48;1655945;85;20962;-56
2021/10/07 06:27:09;;;;;;;41.85;25.57;;;;;;;11.20;93.81;100806.87;1666858;85;22351;-56
2021/10/07 06:29:36;;;;;;;36.80;25.52;;;;;;;11.21;93.77;100804.69;1654805;85;20961;-56
2021/10/07 06:32:03;;;;;;;36.17;25.48;;;;;;;11.15;93.66;100795.73;1651847;85;21012;-56
2021/10/07 06:34:30;;;;;;;41.20;29.25;;;;;;;11.10;93.73;100796.33;1651059;85;21508;-56
2021/10/07 06:36:57;;;;;;;39.23;28.12;;;;;;;11.07;93.77;100801.66;1655063;85;21644;-56
2021/10/07 06:39:23;;;;;;;39.08;29.23;;;;;;;11.03;93.87;100814.41;1656976;85;21436;-56
2021/10/07 06:41:50;;;;;;;42.62;29.27;;;;;;;11.01;93.92;100814.90;1655155;85;21053;-56
2021/10/07 06:44:17;;;;;;;37.40;27.22;;;;;;;11.02;93.98;100817.94;1652489;85;20938;-56
2021/10/07 06:46:43;;;;;;;45.47;28.90;;;;;;;11.05;94.13;100819.14;1653801;85;21097;-56
2021/10/07 06:49:10;;;;;;;42.27;28.77;;;;;;;11.08;94.12;100816.43;1653868;85;20972;-56
2021/10/07 06:51:37;;;;;;;40.70;28.50;;;;;;;11.12;94.01;100831.98;1653648;85;21656;-56
2021/10/07 06:54:04;;;;;;;45.83;30.00;;;;;;;11.14;94.00;100829.30;1654687;86;21100;-57
2021/10/07 06:56:31;;;;;;;38.13;27.77;;;;;;;11.14;93.87;100834.52;1631532;86;21081;-56
2021/10/07 06:58:57;;;;;;;37.90;26.20;;;;;;;11.14;93.79;100842.36;1601787;88;21051;-56
2021/10/07 07:01:27;;;;;;;44.07;26.23;;;;;;;11.12;93.59;100841.58;1606104;88;21630;-56
2021/10/07 07:03:56;;;;;;;37.70;23.57;;;;;;;11.09;93.59;100842.95;1627177;86;21702;-56
2021/10/07 07:06:24;;;;;;;34.53;23.87;;;;;;;11.11;93.64;100846.39;1632456;86;21612;-56
2021/10/07 07:08:51;;;;;;;34.58;22.10;;;;;;;11.12;93.59;100841.58;1659291;85;21084;-56
2021/10/07 07:11:19;;;;;;;39.75;21.87;;;;;;;11.17;93.63;100842.27;1666566;84;21135;-56
2021/10/07 07:13:46;;;;;;;32.80;20.75;;;;;;;11.19;93.59;100836.09;1666438;85;25320;-56
2021/10/07 07:16:13;;;;;;;30.48;20.25;;;;;;;11.24;93.59;100843.80;1661659;85;21105;-56
2021/10/07 07:18:40;;;;;;;28.90;19.98;;;;;;;11.27;93.45;100847.61;1658811;85;21016;-60
2021/10/07 07:21:07;;;;;;;26.62;18.87;;;;;;;11.32;93.50;100843.55;1673012;85;20981;-56
2021/10/07 07:23:34;;;;;;;27.62;19.32;;;;;;;11.37;93.47;100858.19;1659087;85;21020;-56
2021/10/07 07:26:00;;;;;;;27.35;19.42;;;;;;;11.41;93.50;100859.78;1659215;85;21125;-62
2021/10/07 07:28:27;;;;;;;36.70;20.57;;;;;;;11.50;93.54;100859.08;1655165;85;21682;-57
2021/10/07 07:30:54;;;;;;;29.80;18.35;;;;;;;11.57;93.50;100861.45;1661149;85;20996;-57
2021/10/07 07:33:24;;;;;;;28.77;19.03;;;;;;;11.64;93.46;100855.55;1656704;85;21088;-57
2021/10/07 07:35:49;;;;;;;28.35;18.50;;;;;;;11.67;93.26;100852.83;1664975;83;21000;-57
2021/10/07 07:38:16;;;;;;;29.90;17.80;;;;;;;11.71;93.17;100854.45;1665169;85;21013;-57
2021/10/07 07:40:43;;;;;;;25.50;18.12;;;;;;;11.74;93.15;100859.58;1657272;85;21506;-57
2021/10/07 07:43:10;;;;;;;21.87;16.15;;;;;;;11.75;92.96;100857.81;1660632;85;21152;-57
2021/10/07 07:45:37;;;;;;;28.02;18.35;;;;;;;11.77;92.87;100862.09;1667791;84;21599;-57
2021/10/07 07:48:05;;;;;;;23.95;16.40;;;;;;;11.82;93.00;100858.87;1664003;85;21060;-57
2021/10/07 07:50:31;;;;;;;21.90;16.62;;;;;;;11.88;92.91;100862.22;1657582;85;21579;-57
2021/10/07 07:52:58;;;;;;;25.87;16.10;;;;;;;11.92;92.71;100863.81;1639054;86;21450;-57
2021/10/07 07:55:25;;;;;;;26.30;16.53;;;;;;;11.97;93.00;100867.13;1655456;85;21547;-57
2021/10/07 07:57:51;;;;;;;20.50;15.23;;;;;;;12.07;92.96;100870.69;1632579;86;21018;-57
2021/10/07 08:00:18;;;;;;;23.77;16.50;;;;;;;12.13;92.72;100874.85;1660801;84;21017;-57
2021/10/07 08:02:45;;;;;;;22.37;16.10;;;;;;;12.16;92.56;100876.05;1667420;85;21588;-57
2021/10/07 08:05:12;;;;;;;24.83;16.70;;;;;;;12.22;92.50;100878.44;1661720;84;21115;-57
2021/10/07 08:07:39;;;;;;;24.50;15.78;;;;;;;12.28;92.41;100878.67;1668688;85;21050;-57
2021/10/07 08:10:07;;;;;;;21.02;16.67;;;;;;;12.35;92.38;100881.92;1663916;85;20981;-57
2021/10/07 08:12:34;;;;;;;22.22;16.65;;;;;;;12.38;92.34;100892.28;1670967;85;21732;-57
2021/10/07 08:15:02;;;;;;;24.10;16.82;;;;;;;12.46;92.40;100887.62;1659410;85;20970;-57
2021/10/07 08:17:30;;;;;;;25.25;16.48;;;;;;;12.57;92.41;100888.55;1624817;86;21168;-56
2021/10/07 08:19:57;;;;;;;24.82;16.15;;;;;;;12.70;92.49;100889.34;1667158;85;20968;-56
2021/10/07 08:22:24;;;;;;;28.50;16.40;;;;;;;12.79;92.14;100885.98;1625852;86;21009;-57
2021/10/07 08:24:50;;;;;;;26.07;17.03;;;;;;;12.85;92.00;100887.05;1661257;85;21163;-57
2021/10/07 08:27:18;;;;;;;25.40;17.50;;;;;;;12.87;91.77;100886.55;1659644;85;21029;-57
2021/10/07 08:29:45;;;;;;;31.82;17.10;;;;;;;12.88;91.72;100884.31;1670659;83;21437;-57
2021/10/07 08:32:12;;;;;;;;;;;;;;;12.88;91.61;100889.55;1639818;85;21031;-57
2021/10/07 08:34:38;;;;;;;24.63;18.53;;;;;;;12.83;91.52;100888.44;1667515;85;20517;-57
2021/10/07 08:37:05;;;;;;;22.75;17.45;;;;;;;12.81;91.51;100895.95;1638717;87;21338;-56
2021/10/07 08:39:33;;;;;;;21.40;17.30;;;;;;;12.89;91.67;100904.39;1666937;85;21027;-57
2021/10/07 08:42:00;;;;;;;20.17;16.52;;;;;;;12.91;91.31;100903.85;1660636;85;21458;-57
2021/10/07 08:44:30;;;;;;;18.37;15.80;;;;;;;13.02;91.57;100908.22;1662540;85;21034;-57
2021/10/07 08:46:57;;;;;;;20.92;16.10;;;;;;;13.13;91.50;100915.69;1661256;85;20985;-57
2021/10/07 08:49:27;;;;;;;20.00;15.83;;;;;;;13.20;91.21;100908.84;1657671;85;21589;-57
2021/10/07 08:51:54;;;;;;;26.50;17.12;;;;;;;13.34;91.29;100911.41;1661569;85;21029;-57
2021/10/07 08:54:21;;;;;;;18.15;15.55;;;;;;;13.47;91.20;100919.20;1666984;85;21124;-57
2021/10/07 08:56:49;;;;;;;20.43;16.52;;;;;;;13.56;91.14;100913.56;1667934;85;21001;-57
2021/10/07 08:59:18;;;;;;;22.80;15.45;;;;;;;13.60;90.97;100911.20;1667116;85;20967;-57
2021/10/07 09:01:48;;;;;;;23.45;15.53;;;;;;;13.61;90.66;100912.93;1642038;86;21093;-57
2021/10/07 09:04:30;;;;;;;22.87;16.57;;;;;;;13.60;90.60;100910.35;1646447;86;21607;-57
2021/10/07 09:07:02;;;;;;;24.92;16.23;;;;;;;13.63;90.66;100909.76;1665837;85;21064;-57
2021/10/07 09:09:30;;;;;;;20.35;14.00;;;;;;;13.69;90.65;100914.36;1650066;85;22011;-57
2021/10/07 09:12:02;;;;;;;22.10;15.45;;;;;;;13.81;90.74;100912.56;1655599;85;21508;-57
2021/10/07 09:14:34;;;;;;;16.25;14.20;;;;;;;13.93;90.92;100914.66;1651338;85;21021;-57
2021/10/07 09:17:02;;;;;;;21.42;15.35;;;;;;;14.00;90.44;100916.13;1652552;85;21515;-57
2021/10/07 09:19:41;;;;;;;24.27;14.98;;;;;;;14.02;90.25;100918.20;1659227;85;21244;-57
2021/10/07 09:22:20;;;;;;;24.40;15.40;;;;;;;14.03;90.06;100919.94;1638158;86;21038;-57
2021/10/07 09:24:59;;;;;;;19.57;14.75;;;;;;;14.01;89.87;100916.51;1662428;85;21001;-57
2021/10/07 09:27:30;;;;;;;16.73;13.78;;;;;;;13.96;89.58;100924.19;1644550;86;20977;-57
2021/10/07 09:30:00;;;;;;;24.15;14.95;;;;;;;13.94;89.74;100926.02;1667732;85;21532;-57
2021/10/07 09:32:40;;;;;;;19.45;15.43;;;;;;;13.98;90.07;100927.14;1675847;85;21548;-57
2021/10/07 09:35:10;;;;;;;18.27;14.28;;;;;;;14.03;89.87;100927.81;1674473;85;20953;-57
2021/10/07 09:37:40;;;;;;;23.40;15.13;;;;;;;14.00;89.47;100934.94;1672380;85;22189;-57
2021/10/07 09:40:16;;;;;;;25.97;15.85;;;;;;;13.97;89.24;100935.92;1645465;85;21025;-57
2021/10/07 09:42:51;;;;;;;20.05;15.53;;;;;;;13.90;88.93;100934.48;1668241;85;20909;-57
2021/10/07 09:45:33;;;;;;;19.60;15.35;;;;;;;13.94;89.32;100933.42;1664995;85;21531;-57
2021/10/07 09:48:04;;;;;;;19.95;14.45;;;;;;;14.03;89.11;100929.13;1648174;85;22097;-57
2021/10/07 09:50:38;;;;;;;18.48;14.83;;;;;;;14.21;89.38;100933.19;1658874;85;21579;-57
2021/10/07 09:53:17;;;;;;;21.37;14.95;;;;;;;14.37;89.17;100936.86;1659925;85;21578;-57
2021/10/07 09:55:49;;;;;;;21.73;15.45;;;;;;;14.46;88.96;100933.83;1660255;85;20969;-57
2021/10/07 09:58:20;;;;;;;21.87;15.63;;;;;;;14.55;88.70;100937.84;1663782;85;21492;-57
2021/10/07 10:00:53;;;;;;;19.75;15.90;;;;;;;14.60;88.33;100940.28;1638368;86;21026;-57
2021/10/07 10:03:22;;;;;;;25.75;16.62;;;;;;;14.60;88.33;100936.34;1634902;86;21670;-57
2021/10/07 10:05:50;;;;;;;19.20;16.52;;;;;;;14.63;88.27;100940.99;1664103;85;21085;-57
2021/10/07 10:08:19;;;;;;;24.67;15.25;;;;;;;14.65;87.98;100948.83;1661699;85;21072;-57
2021/10/07 10:10:49;;;;;;;25.12;16.27;;;;;;;14.58;87.84;100947.38;1647330;85;21621;-57
2021/10/07 10:13:17;;;;;;;25.23;14.55;;;;;;;14.53;87.91;100945.78;1662913;84;21608;-57
2021/10/07 10:15:44;;;;;;;21.40;14.78;;;;;;;14.51;88.03;100944.99;1662399;85;21020;-57
2021/10/07 10:18:14;;;;;;;20.32;15.53;;;;;;;14.53;87.82;100945.78;1664350;84;21614;-57
2021/10/07 10:20:53;;;;;;;22.77;16.85;;;;;;;14.54;87.80;100956.71;1637203;86;21176;-57
2021/10/07 10:23:23;;;;;;;22.30;17.60;;;;;;;14.53;87.68;100952.83;1662905;85;21055;-57
2021/10/07 10:25:55;;;;;;;22.20;16.25;;;;;;;14.60;88.05;100957.37;1637768;86;21048;-57
2021/10/07 10:28:51;;;;;;;27.75;16.07;;;;;;;14.61;87.69;100953.81;1661398;85;21139;-57
2021/10/07 10:31:35;;;;;;;17.77;15.88;;;;;;;14.58;87.36;100950.00;1630255;87;21105;-57
2021/10/07 10:34:06;;;;;;;19.10;15.38;;;;;;;14.58;87.45;100955.27;1663553;85;21045;-57
2021/10/07 10:36:47;;;;;;;21.12;15.38;;;;;;;14.62;87.40;100957.70;1663257;85;21094;-57
2021/10/07 10:39:30;;;;;;;20.82;15.03;;;;;;;14.66;87.48;100963.66;1646561;85;21072;-57
2021/10/07 10:42:17;;;;;;;21.50;16.30;;;;;;;14.65;87.14;100961.97;1666258;85;21670;-57
2021/10/07 10:44:53;;;;;;;20.23;15.98;;;;;;;14.61;86.87;100969.58;1667844;85;21539;-57
2021/10/07 10:47:27;;;;;;;27.60;16.73;;;;;;;14.55;86.86;100967.61;1664523;85;21108;-57
2021/10/07 10:50:00;;;;;;;21.17;17.37;;;;;;;14.59;87.06;100970.09;1643652;86;21140;-57
2021/10/07 10:52:38;;;;;;;19.40;15.93;;;;;;;14.63;86.91;100970.38;1646093;86;20958;-57
2021/10/07 10:55:23;;;;;;;20.82;16.77;;;;;;;14.67;86.82;100971.93;1663610;85;21009;-57
2021/10/07 10:58:01;;;;;;;24.05;16.67;;;;;;;14.70;86.70;100965.22;1663821;85;21002;-57
2021/10/07 11:00:34;;;;;;;22.85;16.62;;;;;;;14.77;86.55;100962.72;1646894;85;21041;-57
2021/10/07 11:03:15;;;;;;;23.18;17.23;;;;;;;14.93;86.87;100959.80;1647250;86;21091;-57
2021/10/07 11:06:08;;;;;;;24.20;17.12;;;;;;;15.18;86.85;100959.98;1638667;86;21574;-59
2021/10/07 11:08:47;;;;;;;24.75;17.27;;;;;;;15.39;86.46;100954.16;1646200;85;20974;-65
2021/10/07 11:11:26;;;;;;;20.97;16.85;;;;;;;15.59;86.52;100959.77;1645869;85;21223;-67
2021/10/07 11:13:54;;;;;;;22.32;15.80;;;;;;;15.80;85.99;100962.72;1647623;85;21030;-70
2021/10/07 11:16:22;;;;;;;20.52;16.50;;;;;;;15.89;85.68;100959.63;1626901;85;21123;-68
2021/10/07 11:18:50;;;;;;;24.90;16.25;;;;;;;15.96;85.73;100961.95;1644772;85;21069;-69
2021/10/07 11:21:22;;;;;;;18.37;15.88;;;;;;;16.10;85.90;100959.47;1650053;85;20962;-68